createdAt,value
2022-09-20T00:01:22.446Z,1.35
2022-09-20T00:03:52.176Z,1.20
2022-09-20T00:06:22.515Z,1.20
2022-09-20T00:08:50.532Z,1.17
2022-09-20T00:11:20.705Z,1.23
2022-09-20T00:13:50.889Z,1.13
2022-09-20T00:16:22.941Z,1.25
2022-09-20T00:18:51.298Z,1.27
2022-09-20T00:21:21.225Z,1.20
2022-09-20T00:23:49.171Z,1.08
2022-09-20T00:26:17.731Z,1.20
2022-09-20T00:28:47.168Z,1.25
2022-09-20T00:31:16.093Z,1.10
2022-09-20T00:34:02.855Z,0.95
2022-09-20T00:36:31.250Z,1.38
2022-09-20T00:39:01.540Z,1.13
2022-09-20T00:41:30.204Z,1.10
2022-09-20T00:43:58.553Z,1.17
2022-09-20T00:46:34.435Z,1.20
2022-09-20T00:49:09.613Z,1.15
2022-09-20T00:51:40.331Z,1.15
2022-09-20T00:54:11.388Z,1.23
2022-09-20T00:56:44.187Z,1.30
2022-09-20T00:59:17.009Z,1.33
2022-09-20T01:01:47.225Z,1.15
2022-09-20T01:04:17.867Z,1.20
2022-09-20T01:06:47.975Z,0.90
2022-09-20T01:09:16.421Z,1.00
2022-09-20T01:11:44.569Z,0.98
2022-09-20T01:14:15.096Z,1.00
2022-09-20T01:16:43.320Z,0.98
2022-09-20T01:19:21.281Z,1.02
2022-09-20T01:21:49.841Z,1.20
2022-09-20T01:24:24.438Z,0.98
2022-09-20T01:27:06.656Z,0.73
2022-09-20T01:29:48.001Z,0.80
2022-09-20T01:32:22.182Z,1.00
2022-09-20T01:34:55.842Z,0.80
2022-09-20T01:37:27.859Z,0.80
2022-09-20T01:40:05.148Z,0.68
2022-09-20T01:42:37.329Z,0.75
2022-09-20T01:45:16.107Z,0.88
2022-09-20T01:47:53.159Z,0.63
2022-09-20T01:50:32.187Z,0.73
2022-09-20T01:53:33.121Z,0.70
2022-09-20T01:56:37.775Z,0.60
2022-09-20T01:59:28.646Z,0.57
2022-09-20T02:02:10.355Z,0.80
2022-09-20T02:05:17.448Z,0.85
2022-09-20T02:08:10.113Z,0.73
2022-09-20T02:11:12.461Z,0.90
2022-09-20T02:14:06.383Z,0.75
2022-09-20T02:16:51.653Z,0.80
2022-09-20T02:19:34.851Z,0.90
2022-09-20T02:22:16.159Z,0.65
2022-09-20T02:24:52.005Z,0.73
2022-09-20T02:27:27.493Z,0.68
2022-09-20T02:30:11.517Z,0.57
2022-09-20T02:33:02.703Z,0.70
2022-09-20T02:35:48.384Z,0.57
2022-09-20T02:38:31.841Z,0.65
2022-09-20T02:41:24.299Z,0.80
2022-09-20T02:44:00.577Z,0.70
2022-09-20T02:46:35.744Z,0.80
2022-09-20T02:49:09.765Z,0.82
2022-09-20T02:51:41.908Z,0.70
2022-09-20T02:54:19.596Z,0.90
2022-09-20T02:56:56.268Z,0.93
2022-09-20T02:59:33.285Z,1.13
2022-09-20T03:02:10.336Z,1.08
2022-09-20T03:04:56.738Z,1.00
2022-09-20T03:07:35.211Z,1.15
2022-09-20T03:10:16.000Z,1.00
2022-09-20T03:12:56.336Z,0.88
2022-09-20T03:15:33.170Z,0.80
2022-09-20T03:18:09.499Z,0.90
2022-09-20T03:20:49.305Z,1.00
2022-09-20T03:23:37.011Z,0.90
2022-09-20T03:26:15.246Z,1.10
2022-09-20T03:29:00.595Z,0.80
2022-09-20T03:31:40.205Z,1.30
2022-09-20T03:34:21.833Z,1.10
2022-09-20T03:37:06.378Z,1.00
2022-09-20T03:40:16.899Z,0.95
2022-09-20T03:42:48.854Z,0.85
2022-09-20T03:45:42.511Z,1.20
2022-09-20T03:48:39.609Z,1.10
2022-09-20T03:51:16.850Z,1.13
2022-09-20T03:54:17.301Z,1.40
2022-09-20T03:57:30.541Z,0.95
2022-09-20T04:00:24.068Z,1.10
2022-09-20T04:03:30.056Z,1.17
2022-09-20T04:06:19.349Z,0.95
2022-09-20T04:09:06.106Z,1.08
2022-09-20T04:11:44.576Z,1.00
2022-09-20T04:14:20.822Z,1.10
2022-09-20T04:16:56.881Z,1.10
2022-09-20T04:19:32.912Z,1.10
2022-09-20T04:22:03.293Z,1.38
2022-09-20T04:24:39.266Z,1.05
2022-09-20T04:27:14.162Z,0.95
2022-09-20T04:29:50.872Z,0.98
2022-09-20T04:32:26.416Z,0.90
2022-09-20T04:35:21.457Z,0.93
2022-09-20T04:37:51.065Z,1.30
2022-09-20T04:40:36.266Z,1.00
2022-09-20T04:43:40.472Z,0.95
2022-09-20T04:46:35.773Z,0.80
2022-09-20T04:49:29.963Z,0.90
2022-09-20T04:52:47.829Z,0.90
2022-09-20T04:55:47.048Z,0.90
2022-09-20T04:58:38.470Z,0.82
2022-09-20T05:01:44.907Z,0.60
2022-09-20T05:04:57.356Z,0.77
2022-09-20T05:08:00.919Z,0.60
2022-09-20T05:11:06.950Z,0.80
2022-09-20T05:13:43.729Z,0.70
2022-09-20T05:16:23.310Z,0.73
2022-09-20T05:19:17.554Z,0.80
2022-09-20T05:21:54.000Z,0.90
2022-09-20T05:24:38.478Z,0.70
2022-09-20T05:27:22.483Z,0.90
2022-09-20T05:29:57.023Z,0.70
2022-09-20T05:32:35.012Z,0.85
2022-09-20T05:35:12.636Z,0.93
2022-09-20T05:37:47.902Z,0.98
2022-09-20T05:40:24.729Z,0.90
2022-09-20T05:42:59.143Z,0.70
2022-09-20T05:45:54.232Z,0.63
2022-09-20T05:48:32.192Z,0.77
2022-09-20T05:51:05.755Z,0.60
2022-09-20T05:53:58.845Z,0.60
2022-09-20T05:56:40.591Z,0.45
2022-09-20T05:59:22.545Z,0.60
2022-09-20T06:02:01.983Z,0.90
2022-09-20T06:04:43.055Z,0.60
2022-09-20T06:07:26.813Z,0.70
2022-09-20T06:10:15.546Z,0.70
2022-09-20T06:12:56.620Z,0.60
2022-09-20T06:15:30.467Z,0.60
2022-09-20T06:18:05.439Z,0.60
2022-09-20T06:20:44.221Z,0.50
2022-09-20T06:23:13.075Z,0.63
2022-09-20T06:25:46.580Z,0.60
2022-09-20T06:28:18.920Z,0.70
2022-09-20T06:30:49.864Z,0.70
2022-09-20T06:33:20.750Z,0.60
2022-09-20T06:35:58.711Z,0.60
2022-09-20T06:39:04.476Z,0.70
2022-09-20T06:41:35.913Z,0.40
2022-09-20T06:44:06.626Z,0.50
2022-09-20T06:46:36.535Z,0.80
2022-09-20T06:49:08.358Z,0.65
2022-09-20T06:51:39.422Z,0.57
2022-09-20T06:54:11.503Z,0.63
2022-09-20T06:56:39.576Z,0.40
2022-09-20T06:59:08.604Z,0.60
2022-09-20T07:01:36.903Z,0.77
2022-09-20T07:04:06.196Z,0.75
2022-09-20T07:06:34.541Z,0.50
2022-09-20T07:09:04.241Z,0.70
2022-09-20T07:11:34.273Z,0.32
2022-09-20T07:14:02.935Z,0.50
2022-09-20T07:16:30.860Z,0.60
2022-09-20T07:19:00.593Z,0.70
2022-09-20T07:21:28.496Z,0.50
2022-09-20T07:23:57.862Z,0.40
2022-09-20T07:26:29.270Z,0.68
2022-09-20T07:28:57.863Z,0.47
2022-09-20T07:31:27.805Z,0.40
2022-09-20T07:33:56.359Z,0.47
2022-09-20T07:36:24.304Z,0.40
2022-09-20T07:38:53.847Z,0.50
2022-09-20T07:41:23.044Z,0.50
2022-09-20T07:43:52.367Z,0.52
2022-09-20T07:46:22.335Z,0.40
2022-09-20T07:48:50.545Z,0.40
2022-09-20T07:51:18.397Z,0.55
2022-09-20T07:53:46.346Z,0.43
2022-09-20T07:56:16.728Z,0.40
2022-09-20T07:58:48.599Z,0.63
2022-09-20T08:01:22.915Z,0.43
2022-09-20T08:03:51.196Z,0.22
2022-09-20T08:06:21.301Z,0.50
2022-09-20T08:08:51.898Z,0.30
2022-09-20T08:11:27.745Z,0.50
2022-09-20T08:14:12.842Z,0.60
2022-09-20T08:16:43.977Z,0.40
2022-09-20T08:19:17.184Z,0.57
2022-09-20T08:21:45.149Z,0.40
2022-09-20T08:24:13.598Z,0.22
2022-09-20T08:26:42.139Z,0.60
2022-09-20T08:29:09.959Z,0.40
2022-09-20T08:31:42.397Z,0.30
2022-09-20T08:34:15.118Z,0.40
2022-09-20T08:36:46.910Z,0.30
2022-09-20T08:42:16.171Z,0.40
2022-09-20T08:45:00.502Z,0.50
2022-09-20T08:47:32.237Z,0.47
2022-09-20T08:50:17.218Z,0.32
2022-09-20T08:52:48.684Z,0.35
2022-09-20T08:55:18.720Z,0.30
2022-09-20T08:57:50.272Z,0.40
2022-09-20T09:00:20.452Z,0.28
2022-09-20T09:02:51.073Z,0.30
2022-09-20T09:05:33.566Z,0.40
2022-09-20T09:08:05.468Z,0.40
2022-09-20T09:10:42.613Z,0.50
2022-09-20T09:13:19.794Z,0.40
2022-09-20T09:15:54.072Z,0.40
2022-09-20T09:18:21.904Z,0.35
2022-09-20T09:20:51.804Z,0.40
2022-09-20T09:23:26.971Z,0.30
2022-09-20T09:25:55.938Z,0.45
2022-09-20T09:28:25.927Z,0.50
2022-09-20T09:30:54.432Z,0.50
2022-09-20T09:33:28.123Z,0.90
2022-09-20T09:36:00.486Z,0.50
2022-09-20T09:38:30.605Z,0.50
2022-09-20T09:41:00.806Z,0.40
2022-09-20T09:43:30.294Z,0.30
2022-09-20T09:46:18.537Z,0.30
2022-09-20T09:48:50.287Z,0.50
2022-09-20T09:51:23.529Z,0.47
2022-09-20T09:53:52.921Z,0.50
2022-09-20T09:56:41.405Z,0.35
2022-09-20T09:59:32.161Z,0.47
2022-09-20T10:02:15.014Z,0.40
2022-09-20T10:04:48.227Z,0.80
2022-09-20T10:07:25.144Z,0.63
2022-09-20T10:10:09.353Z,0.60
2022-09-20T10:12:52.016Z,0.47
2022-09-20T10:15:34.494Z,0.55
2022-09-20T10:18:28.239Z,0.40
2022-09-20T10:21:20.384Z,1.00
2022-09-20T10:24:04.354Z,0.50
2022-09-20T10:27:28.364Z,0.50
2022-09-20T10:30:04.102Z,0.40
2022-09-20T10:32:47.637Z,0.40
2022-09-20T10:35:24.555Z,0.40
2022-09-20T10:38:19.897Z,0.40
2022-09-20T10:41:21.968Z,0.20
2022-09-20T10:44:11.134Z,0.47
2022-09-20T10:46:53.672Z,0.32
2022-09-20T10:49:28.299Z,0.40
2022-09-20T10:52:08.614Z,0.50
2022-09-20T10:54:49.193Z,0.40
2022-09-20T10:57:51.410Z,0.50
2022-09-20T11:00:23.994Z,0.30
2022-09-20T11:03:16.105Z,0.32
2022-09-20T11:05:54.915Z,0.50
2022-09-20T11:08:27.926Z,0.30
2022-09-20T11:10:59.101Z,0.43
2022-09-20T11:13:35.131Z,0.43
2022-09-20T11:16:10.519Z,0.63
2022-09-20T11:18:43.261Z,0.30
2022-09-20T11:21:18.949Z,0.47
2022-09-20T11:23:55.245Z,0.40
2022-09-20T11:26:29.953Z,0.32
2022-09-20T11:29:05.957Z,0.50
2022-09-20T11:31:40.871Z,0.40
2022-09-20T11:34:15.550Z,0.40
2022-09-20T11:36:52.394Z,0.43
2022-09-20T11:39:25.028Z,0.40
2022-09-20T11:41:56.936Z,0.70
2022-09-20T11:44:26.613Z,0.45
2022-09-20T11:47:00.004Z,0.50
2022-09-20T11:49:33.501Z,0.40
2022-09-20T11:52:35.244Z,0.65
2022-09-20T11:55:42.625Z,0.32
2022-09-20T11:58:16.033Z,0.63
2022-09-20T12:00:48.553Z,0.60
2022-09-20T12:03:29.866Z,0.40
2022-09-20T12:06:00.695Z,0.63
2022-09-20T12:08:31.816Z,0.50
2022-09-20T12:11:04.243Z,0.50
2022-09-20T12:13:36.520Z,0.50
2022-09-20T12:16:09.005Z,0.63
2022-09-20T12:18:49.140Z,0.40
2022-09-20T12:21:20.392Z,0.60
2022-09-20T12:24:19.779Z,0.65
2022-09-20T12:26:52.885Z,0.43
2022-09-20T12:30:05.641Z,0.50
2022-09-20T12:32:46.113Z,0.47
2022-09-20T12:35:57.156Z,0.50
2022-09-20T12:38:31.501Z,0.50
2022-09-20T12:41:01.758Z,0.70
2022-09-20T12:43:31.306Z,0.40
2022-09-20T12:46:04.490Z,0.52
2022-09-20T12:48:39.024Z,0.60
2022-09-20T12:51:38.036Z,0.68
2022-09-20T12:54:08.783Z,0.73
2022-09-20T12:56:39.231Z,0.40
2022-09-20T12:59:21.237Z,0.40
2022-09-20T13:01:49.233Z,0.50
2022-09-20T13:04:56.592Z,0.77
2022-09-20T13:07:44.147Z,0.60
2022-09-20T13:10:25.401Z,0.30
2022-09-20T13:12:57.504Z,0.63
2022-09-20T13:15:25.745Z,0.50
2022-09-20T13:17:56.188Z,0.32
2022-09-20T13:20:29.994Z,0.40
2022-09-20T13:23:01.444Z,0.73
2022-09-20T13:25:29.658Z,0.55
2022-09-20T13:28:07.043Z,0.60
2022-09-20T13:30:35.347Z,0.50
2022-09-20T13:33:23.614Z,0.55
2022-09-20T13:35:54.600Z,0.50
2022-09-20T13:38:27.999Z,0.60
2022-09-20T13:41:04.819Z,0.60
2022-09-20T13:43:37.348Z,0.50
2022-09-20T13:46:10.019Z,0.52
2022-09-20T13:48:38.116Z,1.30
2022-09-20T13:51:17.684Z,0.50
2022-09-20T13:53:47.929Z,0.70
2022-09-20T13:56:21.982Z,0.57
2022-09-20T13:58:50.832Z,0.50
2022-09-20T14:01:25.618Z,0.50
2022-09-20T14:03:54.534Z,0.60
2022-09-20T14:06:28.304Z,0.70
2022-09-20T14:09:00.097Z,0.32
2022-09-20T14:11:31.273Z,0.52
2022-09-20T14:14:01.717Z,0.40
2022-09-20T14:16:32.790Z,0.50
2022-09-20T14:19:01.909Z,0.57
2022-09-20T14:21:34.889Z,0.40
2022-09-20T14:24:07.719Z,0.45
2022-09-20T14:26:37.411Z,0.55
2022-09-20T14:29:30.962Z,0.45
2022-09-20T14:32:01.782Z,0.43
2022-09-20T14:34:29.875Z,1.08
2022-09-20T14:37:06.533Z,0.77
2022-09-20T14:39:44.962Z,0.70
2022-09-20T14:42:20.931Z,0.60
2022-09-20T14:44:53.047Z,0.50
2022-09-20T14:47:27.723Z,0.45
2022-09-20T14:49:56.124Z,0.60
2022-09-20T14:52:38.710Z,0.50
2022-09-20T14:55:21.530Z,0.40
2022-09-20T14:57:50.552Z,0.50
2022-09-20T15:00:19.568Z,0.70
2022-09-20T15:02:48.386Z,0.50
2022-09-20T15:05:24.105Z,0.47
2022-09-20T15:07:51.975Z,0.35
2022-09-20T15:10:21.376Z,0.50
2022-09-20T15:12:49.596Z,0.20
2022-09-20T15:15:19.361Z,0.45
2022-09-20T15:17:48.647Z,0.30
2022-09-20T15:20:24.042Z,0.28
2022-09-20T15:22:52.598Z,0.40
2022-09-20T15:25:22.676Z,0.40
2022-09-20T15:27:50.954Z,0.40
2022-09-20T15:30:21.120Z,0.30
2022-09-20T15:32:49.612Z,0.38
2022-09-20T15:35:17.617Z,0.30
2022-09-20T15:37:45.805Z,0.57
2022-09-20T15:40:13.910Z,0.20
2022-09-20T15:42:43.363Z,0.30
2022-09-20T15:45:13.457Z,0.30
2022-09-20T15:47:41.860Z,0.40
2022-09-20T15:50:10.989Z,0.30
2022-09-20T15:52:41.617Z,0.30
2022-09-20T15:55:11.097Z,0.38
2022-09-20T15:57:39.596Z,0.30
2022-09-20T16:00:10.065Z,0.25
2022-09-20T16:02:38.291Z,0.28
2022-09-20T16:05:06.662Z,0.30
2022-09-20T16:07:34.809Z,0.28
2022-09-20T16:10:02.898Z,0.30
2022-09-20T16:12:30.815Z,0.50
2022-09-20T16:14:58.784Z,0.60
2022-09-20T16:17:41.980Z,0.30
2022-09-20T16:20:10.750Z,0.45
2022-09-20T16:22:38.544Z,0.30
2022-09-20T16:25:08.498Z,0.38
2022-09-20T16:27:36.409Z,0.40
2022-09-20T16:30:04.556Z,0.30
2022-09-20T16:32:34.272Z,0.40
2022-09-20T16:35:07.149Z,0.35
2022-09-20T16:37:36.931Z,0.30
2022-09-20T16:40:05.444Z,0.50
2022-09-20T16:42:33.484Z,0.50
2022-09-20T16:45:01.458Z,0.60
2022-09-20T16:47:29.701Z,0.50
2022-09-20T16:49:58.872Z,0.50
2022-09-20T16:52:27.602Z,0.60
2022-09-20T16:54:56.099Z,0.90
2022-09-20T16:57:23.911Z,0.60
2022-09-20T16:59:54.259Z,0.50
2022-09-20T17:02:22.363Z,0.40
2022-09-20T17:04:50.275Z,0.30
2022-09-20T17:07:19.669Z,0.47
2022-09-20T17:09:47.576Z,0.40
2022-09-20T17:12:19.123Z,0.73
2022-09-20T17:14:47.000Z,0.38
2022-09-20T17:17:14.997Z,0.28
2022-09-20T17:19:42.841Z,0.30
2022-09-20T17:22:11.650Z,0.50
2022-09-20T17:24:40.935Z,0.40
2022-09-20T17:27:09.446Z,0.50
2022-09-20T17:29:37.585Z,0.30
2022-09-20T17:32:05.674Z,0.40
2022-09-20T17:34:33.993Z,0.50
2022-09-20T17:37:03.569Z,0.60
2022-09-20T17:39:31.497Z,0.40
2022-09-20T17:42:01.449Z,0.38
2022-09-20T17:44:29.617Z,0.50
2022-09-20T17:46:57.703Z,0.30
2022-09-20T17:49:26.968Z,0.50
2022-09-20T17:51:56.717Z,0.45
2022-09-20T17:54:25.300Z,0.60
2022-09-20T17:56:56.199Z,0.70
2022-09-20T17:59:25.967Z,0.30
2022-09-20T18:01:54.857Z,0.50
2022-09-20T18:04:24.644Z,0.38
2022-09-20T18:06:54.522Z,0.55
2022-09-20T18:09:24.231Z,0.63
2022-09-20T18:11:54.352Z,0.38
2022-09-20T18:14:24.298Z,0.50
2022-09-20T18:16:55.949Z,0.35
2022-09-20T18:19:24.431Z,0.50
2022-09-20T18:21:52.850Z,0.60
2022-09-20T18:24:20.709Z,0.40
2022-09-20T18:26:48.672Z,0.45
2022-09-20T18:29:18.370Z,0.40
2022-09-20T18:31:48.861Z,0.63
2022-09-20T18:34:20.033Z,0.50
2022-09-20T18:36:52.565Z,0.77
2022-09-20T18:39:21.876Z,1.05
2022-09-20T18:41:50.437Z,1.00
2022-09-20T18:44:22.719Z,0.55
2022-09-20T18:46:53.559Z,0.95
2022-09-20T18:49:23.863Z,0.70
2022-09-20T18:51:51.669Z,0.75
2022-09-20T18:54:19.870Z,1.17
2022-09-20T18:56:49.885Z,0.90
2022-09-20T18:59:20.556Z,0.93
2022-09-20T19:02:18.218Z,0.80
2022-09-20T19:05:08.574Z,0.88
2022-09-20T19:07:48.952Z,0.93
2022-09-20T19:10:26.217Z,1.05
2022-09-20T19:13:02.598Z,1.10
2022-09-20T19:15:49.960Z,1.00
2022-09-20T19:18:32.597Z,0.82
2022-09-20T19:21:17.013Z,0.90
2022-09-20T19:24:02.938Z,0.90
2022-09-20T19:26:38.151Z,0.98
2022-09-20T19:29:26.295Z,1.10
2022-09-20T19:31:57.153Z,1.20
2022-09-20T19:34:28.190Z,1.58
2022-09-20T19:37:08.433Z,0.90
2022-09-20T19:39:50.638Z,1.25
2022-09-20T19:42:29.930Z,1.20
2022-09-20T19:45:04.991Z,1.38
2022-09-20T19:47:46.445Z,1.10
2022-09-20T19:50:18.561Z,1.08
2022-09-20T19:52:50.056Z,1.17
2022-09-20T19:55:29.837Z,1.40
2022-09-20T19:57:59.204Z,1.08
2022-09-20T20:00:29.289Z,0.90
2022-09-20T20:02:58.144Z,0.90
2022-09-20T20:05:28.563Z,1.05
2022-09-20T20:08:12.305Z,0.80
2022-09-20T20:10:51.980Z,1.33
2022-09-20T20:13:50.818Z,0.80
2022-09-20T20:16:26.002Z,0.88
2022-09-20T20:19:08.437Z,0.77
2022-09-20T20:21:46.648Z,0.90
2022-09-20T20:24:26.966Z,0.52
2022-09-20T20:26:54.755Z,0.80
2022-09-20T20:29:22.904Z,0.70
2022-09-20T20:31:50.862Z,0.57
2022-09-20T20:34:20.544Z,0.70
2022-09-20T20:36:49.827Z,0.75
2022-09-20T20:39:19.069Z,0.60
2022-09-20T20:41:52.504Z,0.70
2022-09-20T20:44:21.004Z,0.82
2022-09-20T20:46:49.049Z,0.80
2022-09-20T20:49:17.725Z,0.80
2022-09-20T20:51:45.869Z,0.73
2022-09-20T20:54:13.649Z,0.75
2022-09-20T20:56:43.062Z,0.80
2022-09-20T20:59:11.051Z,0.73
2022-09-20T21:01:42.912Z,0.95
2022-09-20T21:04:11.436Z,0.70
2022-09-20T21:06:41.649Z,0.75
2022-09-20T21:09:10.897Z,0.80
2022-09-20T21:11:40.439Z,0.80
2022-09-20T21:14:10.529Z,1.15
2022-09-20T21:16:42.545Z,0.80
2022-09-20T21:19:14.788Z,0.60
2022-09-20T21:21:44.092Z,0.70
2022-09-20T21:24:13.765Z,0.70
2022-09-20T21:26:42.131Z,0.70
2022-09-20T21:29:13.295Z,0.98
2022-09-20T21:31:43.063Z,0.65
2022-09-20T21:34:12.735Z,0.60
2022-09-20T21:36:42.696Z,0.68
2022-09-20T21:39:10.874Z,1.55
2022-09-20T21:41:39.692Z,0.80
2022-09-20T21:44:09.957Z,0.77
2022-09-20T21:46:41.072Z,0.85
2022-09-20T21:49:11.020Z,0.93
2022-09-20T21:51:40.344Z,0.90
2022-09-20T21:54:08.368Z,1.20
2022-09-20T21:56:37.947Z,1.13
2022-09-20T21:59:07.823Z,0.93
2022-09-20T22:01:37.224Z,0.75
2022-09-20T22:04:08.441Z,0.80
2022-09-20T22:06:37.977Z,0.80
2022-09-20T22:09:08.508Z,0.93
2022-09-20T22:11:39.247Z,1.00
2022-09-20T22:14:07.824Z,1.00
2022-09-20T22:16:38.105Z,1.07
2022-09-20T22:19:08.347Z,1.35
2022-09-20T22:21:38.251Z,1.10
2022-09-20T22:24:07.816Z,0.90
2022-09-20T22:26:37.654Z,0.67
2022-09-20T22:29:06.480Z,0.87
2022-09-20T22:31:37.924Z,1.17
2022-09-20T22:34:08.592Z,0.60
2022-09-20T22:36:38.110Z,0.77
2022-09-20T22:39:07.555Z,0.80
2022-09-20T22:41:36.174Z,0.80
2022-09-20T22:44:04.147Z,0.83
2022-09-20T22:46:32.422Z,0.60
2022-09-20T22:49:00.547Z,0.67
2022-09-20T22:51:33.246Z,0.90
2022-09-20T22:54:01.602Z,0.70
2022-09-20T22:56:31.212Z,0.60
2022-09-20T22:59:00.719Z,0.63
2022-09-20T23:01:30.622Z,0.80
2022-09-20T23:04:01.277Z,0.70
2022-09-20T23:06:32.951Z,0.87
2022-09-20T23:09:02.396Z,0.70
2022-09-20T23:11:30.793Z,0.90
2022-09-20T23:14:05.383Z,0.70
2022-09-20T23:16:39.269Z,0.83
2022-09-20T23:19:10.051Z,0.70
2022-09-20T23:21:41.543Z,0.70
2022-09-20T23:24:16.970Z,0.80
2022-09-20T23:26:47.011Z,0.77
2022-09-20T23:29:16.530Z,0.80
2022-09-20T23:31:47.458Z,0.70
2022-09-20T23:34:17.710Z,0.80
2022-09-20T23:36:49.070Z,1.03
2022-09-20T23:39:17.858Z,0.70
2022-09-20T23:41:51.553Z,0.70
2022-09-20T23:44:24.111Z,0.60
2022-09-20T23:46:52.631Z,0.83
2022-09-20T23:49:23.948Z,0.77
2022-09-20T23:51:53.797Z,0.70
2022-09-20T23:54:21.691Z,0.73
2022-09-20T23:56:50.012Z,0.53
2022-09-20T23:59:21.105Z,0.80
